sensor_id;sensor_type;location;lat;lon;timestamp;pressure;altitude;pressure_sealevel;temperature;humidity
6090;BME280;3073;42.660;23.316;2023-06-14T00:01:45;94242.22;;;24.10;100.00
6090;BME280;3073;42.660;23.316;2023-06-14T00:04:12;94243.97;;;23.94;100.00
6090;BME280;3073;42.660;23.316;2023-06-14T00:06:42;94245.03;;;24.42;100.00
6090;BME280;3073;42.660;23.316;2023-06-14T00:09:10;94241.59;;;24.38;100.00
6090;BME280;3073;42.660;23.316;2023-06-14T00:11:38;94223.75;;;24.40;100.00
6090;BME280;3073;42.660;23.316;2023-06-14T00:14:05;94229.31;;;24.38;100.00
6090;BME280;3073;42.660;23.316;2023-06-14T00:16:32;94236.41;;;24.66;100.00
6090;BME280;3073;42.660;23.316;2023-06-14T00:19:00;94232.16;;;24.73;100.00
6090;BME280;3073;42.660;23.316;2023-06-14T00:21:28;94223.16;;;24.71;100.00
6090;BME280;3073;42.660;23.316;2023-06-14T00:23:55;94227.78;;;24.89;100.00
6090;BME280;3073;42.660;23.316;2023-06-14T00:26:22;94224.94;;;24.94;100.00
6090;BME280;3073;42.660;23.316;2023-06-14T00:28:53;94224.41;;;24.89;100.00
6090;BME280;3073;42.660;23.316;2023-06-14T00:31:20;94223.25;;;25.02;100.00
6090;BME280;3073;42.660;23.316;2023-06-14T00:33:47;94218.91;;;24.66;100.00
6090;BME280;3073;42.660;23.316;2023-06-14T00:36:15;94223.66;;;24.88;100.00
6090;BME280;3073;42.660;23.316;2023-06-14T00:38:42;94221.16;;;24.92;100.00
6090;BME280;3073;42.660;23.316;2023-06-14T00:41:09;94223.78;;;24.92;100.00
6090;BME280;3073;42.660;23.316;2023-06-14T00:43:36;94215.84;;;24.88;100.00
6090;BME280;3073;42.660;23.316;2023-06-14T00:46:02;94214.78;;;25.05;100.00
6090;BME280;3073;42.660;23.316;2023-06-14T00:48:29;94212.31;;;24.96;100.00
6090;BME280;3073;42.660;23.316;2023-06-14T00:50:57;94213.94;;;25.01;100.00
6090;BME280;3073;42.660;23.316;2023-06-14T00:53:28;94215.78;;;25.00;100.00
6090;BME280;3073;42.660;23.316;2023-06-14T00:55:56;94206.44;;;24.59;100.00
6090;BME280;3073;42.660;23.316;2023-06-14T00:58:23;94205.50;;;24.80;100.00
6090;BME280;3073;42.660;23.316;2023-06-14T01:00:50;94211.38;;;24.77;100.00
6090;BME280;3073;42.660;23.316;2023-06-14T01:03:17;94212.22;;;24.53;100.00
6090;BME280;3073;42.660;23.316;2023-06-14T01:05:47;94208.69;;;24.21;100.00
6090;BME280;3073;42.660;23.316;2023-06-14T01:08:23;94205.41;;;24.36;100.00
6090;BME280;3073;42.660;23.316;2023-06-14T01:10:58;94209.44;;;24.34;100.00
6090;BME280;3073;42.660;23.316;2023-06-14T01:13:33;94205.91;;;24.42;100.00
6090;BME280;3073;42.660;23.316;2023-06-14T01:16:01;94209.84;;;24.36;100.00
6090;BME280;3073;42.660;23.316;2023-06-14T01:18:29;94203.56;;;24.37;100.00
6090;BME280;3073;42.660;23.316;2023-06-14T01:20:56;94206.38;;;24.44;100.00
6090;BME280;3073;42.660;23.316;2023-06-14T01:23:24;94209.28;;;24.42;100.00
6090;BME280;3073;42.660;23.316;2023-06-14T01:25:58;94207.06;;;24.17;100.00
6090;BME280;3073;42.660;23.316;2023-06-14T01:28:28;94210.03;;;23.46;100.00
6090;BME280;3073;42.660;23.316;2023-06-14T01:31:00;94209.63;;;23.44;100.00
6090;BME280;3073;42.660;23.316;2023-06-14T01:33:30;94212.38;;;24.20;100.00
6090;BME280;3073;42.660;23.316;2023-06-14T01:35:58;94208.00;;;24.36;100.00
6090;BME280;3073;42.660;23.316;2023-06-14T01:38:27;94202.88;;;24.40;100.00
6090;BME280;3073;42.660;23.316;2023-06-14T01:40:57;94209.19;;;24.51;100.00
6090;BME280;3073;42.660;23.316;2023-06-14T01:43:26;94204.75;;;24.03;100.00
6090;BME280;3073;42.660;23.316;2023-06-14T01:45:54;94202.53;;;24.53;100.00
6090;BME280;3073;42.660;23.316;2023-06-14T01:48:22;94210.00;;;24.67;100.00
6090;BME280;3073;42.660;23.316;2023-06-14T01:50:49;94202.63;;;24.57;100.00
6090;BME280;3073;42.660;23.316;2023-06-14T01:53:16;94209.53;;;24.37;100.00
6090;BME280;3073;42.660;23.316;2023-06-14T01:55:44;94203.03;;;24.71;100.00
6090;BME280;3073;42.660;23.316;2023-06-14T01:58:14;94208.16;;;24.68;100.00
6090;BME280;3073;42.660;23.316;2023-06-14T02:00:41;94217.16;;;24.70;100.00
6090;BME280;3073;42.660;23.316;2023-06-14T02:03:10;94221.97;;;24.56;100.00
6090;BME280;3073;42.660;23.316;2023-06-14T02:05:38;94213.75;;;24.05;100.00
6090;BME280;3073;42.660;23.316;2023-06-14T02:08:06;94218.13;;;24.26;100.00
6090;BME280;3073;42.660;23.316;2023-06-14T02:10:33;94219.75;;;24.30;100.00
6090;BME280;3073;42.660;23.316;2023-06-14T02:13:01;94229.19;;;24.47;100.00
6090;BME280;3073;42.660;23.316;2023-06-14T02:15:28;94229.03;;;24.55;100.00
6090;BME280;3073;42.660;23.316;2023-06-14T02:17:59;94232.44;;;24.44;100.00
6090;BME280;3073;42.660;23.316;2023-06-14T02:20:27;94229.41;;;24.05;100.00
6090;BME280;3073;42.660;23.316;2023-06-14T02:22:54;94240.09;;;24.25;100.00
6090;BME280;3073;42.660;23.316;2023-06-14T02:25:21;94239.63;;;24.23;100.00
6090;BME280;3073;42.660;23.316;2023-06-14T02:27:48;94239.44;;;24.28;100.00
6090;BME280;3073;42.660;23.316;2023-06-14T02:30:16;94238.31;;;23.80;100.00
6090;BME280;3073;42.660;23.316;2023-06-14T02:32:43;94234.22;;;24.28;100.00
6090;BME280;3073;42.660;23.316;2023-06-14T02:35:10;94241.38;;;24.19;100.00
6090;BME280;3073;42.660;23.316;2023-06-14T02:37:38;94234.44;;;23.98;100.00
6090;BME280;3073;42.660;23.316;2023-06-14T02:40:06;94232.47;;;24.32;100.00
6090;BME280;3073;42.660;23.316;2023-06-14T02:42:34;94237.03;;;24.10;100.00
6090;BME280;3073;42.660;23.316;2023-06-14T02:45:01;94241.78;;;23.72;100.00
6090;BME280;3073;42.660;23.316;2023-06-14T02:47:30;94236.88;;;23.58;100.00
6090;BME280;3073;42.660;23.316;2023-06-14T02:49:57;94230.72;;;23.99;100.00
6090;BME280;3073;42.660;23.316;2023-06-14T02:52:24;94232.06;;;23.48;100.00
6090;BME280;3073;42.660;23.316;2023-06-14T02:54:51;94231.47;;;23.31;100.00
6090;BME280;3073;42.660;23.316;2023-06-14T02:57:19;94232.59;;;23.09;100.00
6090;BME280;3073;42.660;23.316;2023-06-14T02:59:46;94233.63;;;23.29;100.00
6090;BME280;3073;42.660;23.316;2023-06-14T03:02:13;94235.16;;;23.30;100.00
6090;BME280;3073;42.660;23.316;2023-06-14T03:04:41;94243.94;;;23.70;100.00
6090;BME280;3073;42.660;23.316;2023-06-14T03:07:10;94246.56;;;23.82;100.00
6090;BME280;3073;42.660;23.316;2023-06-14T03:09:38;94245.84;;;23.49;100.00
6090;BME280;3073;42.660;23.316;2023-06-14T03:12:06;94247.25;;;23.91;100.00
6090;BME280;3073;42.660;23.316;2023-06-14T03:14:35;94253.09;;;24.00;100.00
6090;BME280;3073;42.660;23.316;2023-06-14T03:17:02;94246.16;;;24.17;100.00
6090;BME280;3073;42.660;23.316;2023-06-14T03:19:30;94256.59;;;24.17;100.00
6090;BME280;3073;42.660;23.316;2023-06-14T03:21:58;94252.47;;;24.28;100.00
6090;BME280;3073;42.660;23.316;2023-06-14T03:24:26;94255.94;;;24.32;100.00
6090;BME280;3073;42.660;23.316;2023-06-14T03:26:54;94256.16;;;24.27;100.00
6090;BME280;3073;42.660;23.316;2023-06-14T03:29:22;94242.78;;;24.16;100.00
6090;BME280;3073;42.660;23.316;2023-06-14T03:31:59;94254.31;;;24.27;100.00
6090;BME280;3073;42.660;23.316;2023-06-14T03:34:26;94262.13;;;24.39;100.00
6090;BME280;3073;42.660;23.316;2023-06-14T03:36:53;94263.00;;;24.31;100.00
6090;BME280;3073;42.660;23.316;2023-06-14T03:39:21;94268.63;;;24.09;100.00
6090;BME280;3073;42.660;23.316;2023-06-14T03:41:48;94260.81;;;24.09;100.00
6090;BME280;3073;42.660;23.316;2023-06-14T03:44:17;94261.16;;;24.44;100.00
6090;BME280;3073;42.660;23.316;2023-06-14T03:46:44;94263.66;;;24.28;100.00
6090;BME280;3073;42.660;23.316;2023-06-14T03:49:11;94267.91;;;24.21;100.00
6090;BME280;3073;42.660;23.316;2023-06-14T03:51:38;94259.41;;;24.12;100.00
6090;BME280;3073;42.660;23.316;2023-06-14T03:54:06;94262.44;;;24.50;100.00
6090;BME280;3073;42.660;23.316;2023-06-14T03:56:34;94268.63;;;24.57;100.00
6090;BME280;3073;42.660;23.316;2023-06-14T03:59:01;94266.69;;;24.54;100.00
6090;BME280;3073;42.660;23.316;2023-06-14T04:01:28;94274.00;;;24.25;100.00
6090;BME280;3073;42.660;23.316;2023-06-14T04:03:56;94269.28;;;24.42;100.00
6090;BME280;3073;42.660;23.316;2023-06-14T04:06:24;94270.81;;;24.43;100.00
6090;BME280;3073;42.660;23.316;2023-06-14T04:08:58;94268.09;;;23.91;100.00
6090;BME280;3073;42.660;23.316;2023-06-14T04:11:29;94273.88;;;24.33;100.00
6090;BME280;3073;42.660;23.316;2023-06-14T04:13:58;94266.03;;;24.57;100.00
6090;BME280;3073;42.660;23.316;2023-06-14T04:16:25;94265.63;;;24.31;100.00
6090;BME280;3073;42.660;23.316;2023-06-14T04:18:55;94267.78;;;24.29;100.00
6090;BME280;3073;42.660;23.316;2023-06-14T04:21:25;94271.56;;;24.56;100.00
6090;BME280;3073;42.660;23.316;2023-06-14T04:23:54;94265.94;;;24.30;100.00
6090;BME280;3073;42.660;23.316;2023-06-14T04:26:21;94273.69;;;23.69;100.00
6090;BME280;3073;42.660;23.316;2023-06-14T04:28:49;94268.97;;;24.20;100.00
6090;BME280;3073;42.660;23.316;2023-06-14T04:31:17;94269.63;;;24.41;100.00
6090;BME280;3073;42.660;23.316;2023-06-14T04:33:44;94269.63;;;24.41;100.00
6090;BME280;3073;42.660;23.316;2023-06-14T04:36:12;94273.53;;;24.10;100.00
6090;BME280;3073;42.660;23.316;2023-06-14T04:38:39;94275.56;;;23.81;100.00
6090;BME280;3073;42.660;23.316;2023-06-14T04:41:06;94270.94;;;23.53;100.00
6090;BME280;3073;42.660;23.316;2023-06-14T04:43:37;94265.13;;;23.93;100.00
6090;BME280;3073;42.660;23.316;2023-06-14T04:46:05;94273.50;;;24.71;100.00
6090;BME280;3073;42.660;23.316;2023-06-14T04:48:36;94268.50;;;23.93;100.00
6090;BME280;3073;42.660;23.316;2023-06-14T04:51:05;94276.94;;;24.75;100.00
6090;BME280;3073;42.660;23.316;2023-06-14T04:53:32;94275.16;;;25.03;100.00
6090;BME280;3073;42.660;23.316;2023-06-14T04:55:59;94286.81;;;25.34;100.00
6090;BME280;3073;42.660;23.316;2023-06-14T04:58:27;94282.59;;;25.57;100.00
6090;BME280;3073;42.660;23.316;2023-06-14T05:00:54;94283.66;;;25.56;100.00
6090;BME280;3073;42.660;23.316;2023-06-14T05:03:21;94286.66;;;25.86;100.00
6090;BME280;3073;42.660;23.316;2023-06-14T05:05:50;94294.31;;;25.79;100.00
6090;BME280;3073;42.660;23.316;2023-06-14T05:08:18;94300.00;;;24.97;100.00
6090;BME280;3073;42.660;23.316;2023-06-14T05:10:45;94294.72;;;25.09;100.00
6090;BME280;3073;42.660;23.316;2023-06-14T05:13:12;94294.16;;;25.87;99.33
6090;BME280;3073;42.660;23.316;2023-06-14T05:15:38;94291.97;;;25.89;100.00
6090;BME280;3073;42.660;23.316;2023-06-14T05:18:05;94290.28;;;26.44;97.61
6090;BME280;3073;42.660;23.316;2023-06-14T05:20:33;94291.41;;;26.62;96.16
6090;BME280;3073;42.660;23.316;2023-06-14T05:23:03;94299.50;;;26.88;94.65
6090;BME280;3073;42.660;23.316;2023-06-14T05:25:30;94296.56;;;27.28;91.33
6090;BME280;3073;42.660;23.316;2023-06-14T05:27:57;94303.31;;;26.25;89.80
6090;BME280;3073;42.660;23.316;2023-06-14T05:30:24;94307.50;;;26.29;89.51
6090;BME280;3073;42.660;23.316;2023-06-14T05:32:51;94316.31;;;25.62;92.30
6090;BME280;3073;42.660;23.316;2023-06-14T05:35:19;94323.13;;;25.51;93.33
6090;BME280;3073;42.660;23.316;2023-06-14T05:37:47;94312.34;;;25.40;95.13
6090;BME280;3073;42.660;23.316;2023-06-14T05:40:15;94318.66;;;26.42;94.45
6090;BME280;3073;42.660;23.316;2023-06-14T05:42:43;94307.22;;;27.39;90.88
6090;BME280;3073;42.660;23.316;2023-06-14T05:45:10;94316.09;;;27.73;88.25
6090;BME280;3073;42.660;23.316;2023-06-14T05:47:37;94317.84;;;27.07;86.25
6090;BME280;3073;42.660;23.316;2023-06-14T05:50:04;94323.84;;;28.07;82.87
6090;BME280;3073;42.660;23.316;2023-06-14T05:52:31;94325.25;;;26.86;82.80
6090;BME280;3073;42.660;23.316;2023-06-14T05:54:58;94320.84;;;27.86;80.35
6090;BME280;3073;42.660;23.316;2023-06-14T05:57:27;94319.81;;;28.36;80.71
6090;BME280;3073;42.660;23.316;2023-06-14T05:59:54;94323.31;;;28.44;80.05
6090;BME280;3073;42.660;23.316;2023-06-14T06:02:21;94320.50;;;27.65;83.98
6090;BME280;3073;42.660;23.316;2023-06-14T06:04:48;94328.16;;;27.35;82.37
6090;BME280;3073;42.660;23.316;2023-06-14T06:07:14;94331.72;;;28.07;78.94
6090;BME280;3073;42.660;23.316;2023-06-14T06:09:41;94325.47;;;28.38;77.85
6090;BME280;3073;42.660;23.316;2023-06-14T06:12:10;94323.66;;;27.55;82.16
6090;BME280;3073;42.660;23.316;2023-06-14T06:14:38;94322.81;;;27.12;85.51
6090;BME280;3073;42.660;23.316;2023-06-14T06:17:05;94330.78;;;26.50;90.04
6090;BME280;3073;42.660;23.316;2023-06-14T06:19:32;94337.34;;;26.75;91.31
6090;BME280;3073;42.660;23.316;2023-06-14T06:21:59;94339.75;;;26.33;94.16
6090;BME280;3073;42.660;23.316;2023-06-14T06:24:26;94338.44;;;25.96;97.05
6090;BME280;3073;42.660;23.316;2023-06-14T06:26:53;94341.78;;;25.65;100.00
6090;BME280;3073;42.660;23.316;2023-06-14T06:29:20;94343.84;;;25.32;100.00
6090;BME280;3073;42.660;23.316;2023-06-14T06:31:48;94341.91;;;25.84;100.00
6090;BME280;3073;42.660;23.316;2023-06-14T06:34:15;94346.88;;;25.89;99.55
6090;BME280;3073;42.660;23.316;2023-06-14T06:36:42;94348.50;;;25.50;100.00
6090;BME280;3073;42.660;23.316;2023-06-14T06:39:09;94346.16;;;25.49;100.00
6090;BME280;3073;42.660;23.316;2023-06-14T06:41:38;94344.09;;;25.27;100.00
6090;BME280;3073;42.660;23.316;2023-06-14T06:44:05;94347.06;;;25.53;100.00
6090;BME280;3073;42.660;23.316;2023-06-14T06:46:32;94345.19;;;25.81;100.00
6090;BME280;3073;42.660;23.316;2023-06-14T06:49:00;94354.63;;;26.45;99.18
6090;BME280;3073;42.660;23.316;2023-06-14T06:51:27;94346.31;;;26.74;97.42
6090;BME280;3073;42.660;23.316;2023-06-14T06:53:54;94349.25;;;26.73;95.05
6090;BME280;3073;42.660;23.316;2023-06-14T06:56:21;94346.34;;;27.28;92.14
6090;BME280;3073;42.660;23.316;2023-06-14T06:58:49;94352.34;;;26.28;94.81
6090;BME280;3073;42.660;23.316;2023-06-14T07:01:16;94350.66;;;26.35;93.94
6090;BME280;3073;42.660;23.316;2023-06-14T07:03:44;94351.38;;;27.18;90.85
6090;BME280;3073;42.660;23.316;2023-06-14T07:06:12;94351.78;;;27.39;87.63
6090;BME280;3073;42.660;23.316;2023-06-14T07:08:39;94349.16;;;27.39;87.01
6090;BME280;3073;42.660;23.316;2023-06-14T07:11:06;94348.81;;;27.21;87.59
6090;BME280;3073;42.660;23.316;2023-06-14T07:13:33;94350.81;;;26.58;91.63
6090;BME280;3073;42.660;23.316;2023-06-14T07:16:00;94347.69;;;27.80;87.75
6090;BME280;3073;42.660;23.316;2023-06-14T07:18:28;94347.91;;;29.11;83.75
6090;BME280;3073;42.660;23.316;2023-06-14T07:20:56;94348.66;;;30.08;75.15
6090;BME280;3073;42.660;23.316;2023-06-14T07:23:24;94351.69;;;31.08;67.57
6090;BME280;3073;42.660;23.316;2023-06-14T07:25:51;94347.25;;;30.65;62.75
6090;BME280;3073;42.660;23.316;2023-06-14T07:28:18;94342.09;;;31.51;64.05
6090;BME280;3073;42.660;23.316;2023-06-14T07:30:45;94340.72;;;32.10;61.40
6090;BME280;3073;42.660;23.316;2023-06-14T07:33:11;94342.22;;;32.47;56.90
6090;BME280;3073;42.660;23.316;2023-06-14T07:35:38;94344.34;;;31.53;59.32
6090;BME280;3073;42.660;23.316;2023-06-14T07:38:06;94343.72;;;32.97;56.79
6090;BME280;3073;42.660;23.316;2023-06-14T07:40:34;94339.59;;;31.07;57.70
6090;BME280;3073;42.660;23.316;2023-06-14T07:43:01;94340.09;;;30.62;60.30
6090;BME280;3073;42.660;23.316;2023-06-14T07:45:28;94340.06;;;30.58;60.03
6090;BME280;3073;42.660;23.316;2023-06-14T07:47:57;94343.59;;;31.59;58.39
6090;BME280;3073;42.660;23.316;2023-06-14T07:50:24;94342.22;;;32.54;55.89
6090;BME280;3073;42.660;23.316;2023-06-14T07:52:50;94347.84;;;33.09;56.61
6090;BME280;3073;42.660;23.316;2023-06-14T07:55:17;94352.44;;;32.38;53.56
6090;BME280;3073;42.660;23.316;2023-06-14T07:57:49;94353.88;;;32.03;54.25
6090;BME280;3073;42.660;23.316;2023-06-14T08:00:19;94353.06;;;31.71;54.28
6090;BME280;3073;42.660;23.316;2023-06-14T08:02:46;94357.44;;;31.32;56.40
6090;BME280;3073;42.660;23.316;2023-06-14T08:05:13;94366.72;;;31.04;55.99
6090;BME280;3073;42.660;23.316;2023-06-14T08:07:40;94362.97;;;31.09;58.30
6090;BME280;3073;42.660;23.316;2023-06-14T08:10:08;94356.75;;;29.55;63.54
6090;BME280;3073;42.660;23.316;2023-06-14T08:12:35;94373.69;;;29.02;67.35
6090;BME280;3073;42.660;23.316;2023-06-14T08:15:05;94373.31;;;29.30;67.58
6090;BME280;3073;42.660;23.316;2023-06-14T08:17:32;94380.59;;;29.73;67.04
6090;BME280;3073;42.660;23.316;2023-06-14T08:19:59;94375.97;;;29.03;69.86
6090;BME280;3073;42.660;23.316;2023-06-14T08:22:26;94377.19;;;27.73;76.05
6090;BME280;3073;42.660;23.316;2023-06-14T08:24:57;94372.47;;;26.90;78.40
6090;BME280;3073;42.660;23.316;2023-06-14T08:27:24;94371.50;;;27.13;79.95
6090;BME280;3073;42.660;23.316;2023-06-14T08:29:51;94375.78;;;27.22;78.79
6090;BME280;3073;42.660;23.316;2023-06-14T08:32:20;94377.38;;;27.84;77.47
6090;BME280;3073;42.660;23.316;2023-06-14T08:34:46;94383.66;;;27.79;76.80
6090;BME280;3073;42.660;23.316;2023-06-14T08:37:13;94373.97;;;27.06;79.03
6090;BME280;3073;42.660;23.316;2023-06-14T08:39:40;94371.84;;;27.89;76.38
6090;BME280;3073;42.660;23.316;2023-06-14T08:42:09;94367.41;;;27.93;74.90
6090;BME280;3073;42.660;23.316;2023-06-14T08:44:36;94374.22;;;28.85;71.93
6090;BME280;3073;42.660;23.316;2023-06-14T08:47:04;94367.06;;;29.71;68.94
6090;BME280;3073;42.660;23.316;2023-06-14T08:49:36;94369.09;;;30.22;67.70
6090;BME280;3073;42.660;23.316;2023-06-14T08:52:06;94365.84;;;30.93;66.33
6090;BME280;3073;42.660;23.316;2023-06-14T08:54:36;94364.88;;;32.34;59.20
6090;BME280;3073;42.660;23.316;2023-06-14T08:57:10;94365.88;;;31.76;58.30
6090;BME280;3073;42.660;23.316;2023-06-14T08:59:46;94366.53;;;33.71;55.00
6090;BME280;3073;42.660;23.316;2023-06-14T09:02:15;94361.69;;;31.57;56.35
6090;BME280;3073;42.660;23.316;2023-06-14T09:04:49;94369.88;;;31.31;58.00
6090;BME280;3073;42.660;23.316;2023-06-14T09:07:16;94364.88;;;32.09;57.78
6090;BME280;3073;42.660;23.316;2023-06-14T09:09:43;94363.53;;;31.50;57.73
6090;BME280;3073;42.660;23.316;2023-06-14T09:12:11;94363.97;;;31.55;56.97
6090;BME280;3073;42.660;23.316;2023-06-14T09:14:38;94360.97;;;31.64;57.63
6090;BME280;3073;42.660;23.316;2023-06-14T09:17:07;94350.47;;;31.82;56.81
6090;BME280;3073;42.660;23.316;2023-06-14T09:19:34;94352.75;;;31.97;54.92
6090;BME280;3073;42.660;23.316;2023-06-14T09:22:04;94354.31;;;32.12;54.63
6090;BME280;3073;42.660;23.316;2023-06-14T09:24:31;94357.22;;;31.83;55.72
6090;BME280;3073;42.660;23.316;2023-06-14T09:26:58;94354.78;;;31.28;56.13
6090;BME280;3073;42.660;23.316;2023-06-14T09:29:25;94351.69;;;32.34;55.98
6090;BME280;3073;42.660;23.316;2023-06-14T09:31:53;94348.66;;;32.53;53.99
6090;BME280;3073;42.660;23.316;2023-06-14T09:34:21;94355.81;;;32.77;51.48
6090;BME280;3073;42.660;23.316;2023-06-14T09:36:49;94350.53;;;32.74;53.08
6090;BME280;3073;42.660;23.316;2023-06-14T09:39:18;94348.00;;;33.71;51.24
6090;BME280;3073;42.660;23.316;2023-06-14T09:41:45;94357.09;;;35.21;48.56
6090;BME280;3073;42.660;23.316;2023-06-14T09:44:12;94341.13;;;36.16;47.38
6090;BME280;3073;42.660;23.316;2023-06-14T09:46:39;94347.59;;;36.84;43.07
6090;BME280;3073;42.660;23.316;2023-06-14T09:49:06;94349.25;;;34.22;45.69
6090;BME280;3073;42.660;23.316;2023-06-14T09:51:34;94346.25;;;34.16;46.14
6090;BME280;3073;42.660;23.316;2023-06-14T09:54:06;94337.72;;;32.44;48.33
6090;BME280;3073;42.660;23.316;2023-06-14T09:56:37;94335.44;;;32.14;50.93
6090;BME280;3073;42.660;23.316;2023-06-14T09:59:09;94335.66;;;33.40;48.76
6090;BME280;3073;42.660;23.316;2023-06-14T10:01:43;94328.75;;;34.74;45.78
6090;BME280;3073;42.660;23.316;2023-06-14T10:04:10;94325.94;;;36.39;44.65
6090;BME280;3073;42.660;23.316;2023-06-14T10:06:39;94328.94;;;35.61;43.19
6090;BME280;3073;42.660;23.316;2023-06-14T10:09:12;94325.31;;;36.32;43.70
6090;BME280;3073;42.660;23.316;2023-06-14T10:11:41;94322.00;;;37.33;43.03
6090;BME280;3073;42.660;23.316;2023-06-14T10:14:11;94319.50;;;37.26;42.16
6090;BME280;3073;42.660;23.316;2023-06-14T10:16:43;94316.28;;;38.06;41.91
6090;BME280;3073;42.660;23.316;2023-06-14T10:19:18;94302.13;;;36.32;43.32
6090;BME280;3073;42.660;23.316;2023-06-14T10:21:54;94310.25;;;37.86;39.81
6090;BME280;3073;42.660;23.316;2023-06-14T10:24:29;94309.31;;;38.45;38.76
6090;BME280;3073;42.660;23.316;2023-06-14T10:26:59;94308.72;;;36.24;39.94
6090;BME280;3073;42.660;23.316;2023-06-14T10:29:26;94303.00;;;35.72;41.55
6090;BME280;3073;42.660;23.316;2023-06-14T10:31:58;94304.41;;;36.77;40.93
6090;BME280;3073;42.660;23.316;2023-06-14T10:34:27;94303.03;;;35.04;42.25
6090;BME280;3073;42.660;23.316;2023-06-14T10:37:01;94306.91;;;34.96;43.41
6090;BME280;3073;42.660;23.316;2023-06-14T10:39:33;94300.66;;;34.39;43.84
6090;BME280;3073;42.660;23.316;2023-06-14T10:42:05;94295.31;;;33.14;46.05
6090;BME280;3073;42.660;23.316;2023-06-14T10:44:43;94293.84;;;31.51;49.59
6090;BME280;3073;42.660;23.316;2023-06-14T10:47:20;94286.53;;;33.39;47.60
6090;BME280;3073;42.660;23.316;2023-06-14T10:49:51;94300.69;;;35.13;45.43
6090;BME280;3073;42.660;23.316;2023-06-14T10:52:22;94290.09;;;33.77;45.79
6090;BME280;3073;42.660;23.316;2023-06-14T10:55:02;94291.16;;;34.41;45.79
6090;BME280;3073;42.660;23.316;2023-06-14T10:57:33;94286.22;;;34.43;45.29
6090;BME280;3073;42.660;23.316;2023-06-14T11:00:01;94273.91;;;34.67;44.31
6090;BME280;3073;42.660;23.316;2023-06-14T11:03:11;94278.63;;;35.20;44.01
6090;BME280;3073;42.660;23.316;2023-06-14T11:05:51;94275.97;;;36.50;41.08
6090;BME280;3073;42.660;23.316;2023-06-14T11:08:31;94267.31;;;33.28;45.32
6090;BME280;3073;42.660;23.316;2023-06-14T11:11:01;94272.91;;;34.88;42.46
6090;BME280;3073;42.660;23.316;2023-06-14T11:13:34;94266.53;;;35.76;42.42
6090;BME280;3073;42.660;23.316;2023-06-14T11:16:10;94268.84;;;35.44;40.54
6090;BME280;3073;42.660;23.316;2023-06-14T11:18:37;94261.91;;;35.23;42.11
6090;BME280;3073;42.660;23.316;2023-06-14T11:21:04;94266.53;;;35.76;42.99
6090;BME280;3073;42.660;23.316;2023-06-14T11:23:30;94259.38;;;35.96;41.22
6090;BME280;3073;42.660;23.316;2023-06-14T11:25:57;94255.81;;;36.30;41.61
6090;BME280;3073;42.660;23.316;2023-06-14T11:28:24;94254.50;;;35.07;42.78
6090;BME280;3073;42.660;23.316;2023-06-14T11:31:01;94257.13;;;35.41;42.50
6090;BME280;3073;42.660;23.316;2023-06-14T11:33:27;94262.53;;;33.71;44.90
6090;BME280;3073;42.660;23.316;2023-06-14T11:35:54;94248.16;;;33.75;44.13
6090;BME280;3073;42.660;23.316;2023-06-14T11:38:21;94252.03;;;34.56;43.52
6090;BME280;3073;42.660;23.316;2023-06-14T11:40:48;94259.81;;;33.05;44.49
6090;BME280;3073;42.660;23.316;2023-06-14T11:43:16;94251.31;;;34.04;44.85
6090;BME280;3073;42.660;23.316;2023-06-14T11:45:43;94247.75;;;34.69;42.93
6090;BME280;3073;42.660;23.316;2023-06-14T11:48:11;94248.16;;;33.75;43.75
6090;BME280;3073;42.660;23.316;2023-06-14T11:50:37;94239.06;;;32.96;44.27
6090;BME280;3073;42.660;23.316;2023-06-14T11:53:05;94241.81;;;34.54;44.11
6090;BME280;3073;42.660;23.316;2023-06-14T11:55:36;94232.56;;;36.14;42.57
6090;BME280;3073;42.660;23.316;2023-06-14T11:58:03;94233.53;;;37.26;39.98
6090;BME280;3073;42.660;23.316;2023-06-14T12:00:30;94226.41;;;37.03;39.59
6090;BME280;3073;42.660;23.316;2023-06-14T12:02:58;94217.31;;;35.41;39.36
6090;BME280;3073;42.660;23.316;2023-06-14T12:05:27;94221.06;;;34.83;41.60
6090;BME280;3073;42.660;23.316;2023-06-14T12:07:58;94216.66;;;33.88;41.74
6090;BME280;3073;42.660;23.316;2023-06-14T12:10:26;94212.91;;;33.23;42.71
6090;BME280;3073;42.660;23.316;2023-06-14T12:12:57;94206.81;;;33.88;44.31
6090;BME280;3073;42.660;23.316;2023-06-14T12:15:24;94208.38;;;34.27;44.08
6090;BME280;3073;42.660;23.316;2023-06-14T12:17:54;94212.84;;;33.34;45.34
6090;BME280;3073;42.660;23.316;2023-06-14T12:20:21;94205.97;;;33.43;45.66
6090;BME280;3073;42.660;23.316;2023-06-14T12:22:52;94192.44;;;33.34;45.02
6090;BME280;3073;42.660;23.316;2023-06-14T12:25:27;94201.50;;;33.30;45.56
6090;BME280;3073;42.660;23.316;2023-06-14T12:27:56;94203.34;;;33.40;46.47
6090;BME280;3073;42.660;23.316;2023-06-14T12:30:23;94201.13;;;32.23;46.99
6090;BME280;3073;42.660;23.316;2023-06-14T12:32:50;94194.31;;;31.41;47.02
6090;BME280;3073;42.660;23.316;2023-06-14T12:35:17;94189.44;;;31.60;47.66
6090;BME280;3073;42.660;23.316;2023-06-14T12:37:44;94189.84;;;31.59;46.64
6090;BME280;3073;42.660;23.316;2023-06-14T12:40:12;94187.47;;;32.49;45.79
6090;BME280;3073;42.660;23.316;2023-06-14T12:42:40;94182.66;;;31.70;47.71
6090;BME280;3073;42.660;23.316;2023-06-14T12:45:08;94176.97;;;30.39;49.63
6090;BME280;3073;42.660;23.316;2023-06-14T12:47:34;94182.31;;;30.46;50.93
6090;BME280;3073;42.660;23.316;2023-06-14T12:50:03;94169.38;;;31.13;51.14
6090;BME280;3073;42.660;23.316;2023-06-14T12:52:30;94177.91;;;30.72;51.27
6090;BME280;3073;42.660;23.316;2023-06-14T12:55:01;94165.25;;;31.02;50.87
6090;BME280;3073;42.660;23.316;2023-06-14T12:57:30;94163.25;;;30.81;50.66
6090;BME280;3073;42.660;23.316;2023-06-14T12:59:59;94177.78;;;31.58;51.99
6090;BME280;3073;42.660;23.316;2023-06-14T13:02:26;94181.25;;;29.56;55.85
6090;BME280;3073;42.660;23.316;2023-06-14T13:04:53;94175.53;;;29.06;58.52
6090;BME280;3073;42.660;23.316;2023-06-14T13:07:19;94175.34;;;28.59;61.92
6090;BME280;3073;42.660;23.316;2023-06-14T13:09:46;94167.94;;;28.98;61.99
6090;BME280;3073;42.660;23.316;2023-06-14T13:12:13;94172.41;;;28.64;63.32
6090;BME280;3073;42.660;23.316;2023-06-14T13:14:41;94173.59;;;29.37;63.21